sim
Sign-in with your pilot id or email,
or register
Callsign
Passwort

Schedule Details

Flight Number: DLH1707
Departure: Sofia Airport (LBSF) at 04:05
Arrival: Munich Airport (EDDM) at 06:05
Route: Lufthansa Passenger Schedule. Enter filed route here before submitting Pirep.

Weather Information
Getting current METAR information for LBSF 241200Z VRB02KT 7000 -RA FEW007 OVC052 17/15 Q1015 TEMPO 3000 RA
Getting current METAR information for EDDM 241150Z 18005KT 140V210 9999 FEW033 21/14 Q1010 NOSIG

Schedule Frequency

Route Map